Airfield :
LOGIN :

Register | Disclaimer

   EN    FR    IT 

 










Legend :    VFR   Marginal VFR   IFR   Intensive IFR   Very Intensive IFR
Visi :
Ceiling :
>= 8 km
>= 3000ft
5 to 8 km
1000 to 3000 ft
1500m to 5 km
500 to 1000 ft
800 to 1500m
200 to 500 ft
< 800m
< 200 ft
Symbols :   Thunderstorms  Fog  Heavy snow  Heavy precipitations  Wind > 20 kt
SIGMETs :     Misc.  Thunderstorms  Icing  Turbulence  Mountain Waves  Volcanic Ashes







- Airport Elevation : 83 ft
- IATA code : LHR
- Download approach charts


EGLL - London Heathrow

CURRENT METAR :
  • 200520Z VRB03KT 8000 NSC 09/09 Q1020

EXPIRED METARs :
  • 200450Z VRB01KT 9000 NSC 10/09 Q1020 NOSIG
  • 200420Z 20003KT CAVOK 10/09 Q1020 NOSIG
  • 200350Z 21003KT 9999 FEW040 10/09 Q1020 NOSIG
  • 200320Z 22002KT 9999 SCT040 11/10 Q1020
  • 200250Z AUTO 22002KT 8000 FEW042 OVC049 11/10 Q1020 NOSIG

TAF TAF EGLL
Valid from the 20 at 06:00 until the 21 at 12:00 UTC


200503Z 2006/2112 21005KT 9999 SCT045
TEMPO 2006/2008 7000
PROB40
TEMPO 2006/2007 3500 BR
PROB30
TEMPO 2008/2010 BKN012
No reported NOTAMs for that airfield.



MET'MAP, your aeronautical weather chart ! - Copyright ORBIFLY December 2007 - Disclaimer

ORBIFLY MET'MAP TEAM :

Programming & Development : Alexandra Zaïnal
Concept & Development : Baudouin d'Aumeries
Co-Development & Prog : Marc-Olivier Méhu
Technical & hardware support : Manuel Goepfert

Contact : metmap@orbifly.com




SOURCES & CREDITS :

   NOAA